N326DW MYAM-KPBI
Flight info
| Callsign | N326DW |
|---|---|
| Flight time | 0h 45m |
| Altitude | 14000 |
| Route | ZFP BR64V MRLIN |
| Aircraft | B350/L-SBGRW/S |
Departure
| Time | 2026-04-28 23:03 |
|---|---|
| Airport | Leonard M. Thompson International Airport (MYAM) |
Arrival
| Time | 2026-04-28 23:48 |
|---|---|
| Airport | Palm Beach International Airport (KPBI) |
| Time | Latitude | Longitude | Altitude | Speed | Heading |
|---|---|---|---|---|---|
| 2026-04-28 22:39 | 26.51217 | -77.08373 | 14 ft | 1 kts | 349° |
| 2026-04-28 22:39 | 26.51242 | -77.08379 | 14 ft | 3 kts | 346° |
| 2026-04-28 22:39 | 26.51259 | -77.08384 | 14 ft | 4 kts | 340° |
| 2026-04-28 22:40 | 26.51274 | -77.08392 | 13 ft | 0 kts | 328° |
| 2026-04-28 22:40 | 26.51288 | -77.08412 | 13 ft | 4 kts | 307° |
| 2026-04-28 22:40 | 26.51296 | -77.08424 | 13 ft | 0 kts | 323° |
| 2026-04-28 22:40 | 26.51300 | -77.08431 | 13 ft | 0 kts | 308° |
| 2026-04-28 22:41 | 26.51305 | -77.08432 | 13 ft | 0 kts | 27° |
| 2026-04-28 22:41 | 26.51309 | -77.08421 | 13 ft | 2 kts | 99° |
| 2026-04-28 22:41 | 26.51307 | -77.08403 | 13 ft | 0 kts | 102° |
| 2026-04-28 22:41 | 26.51307 | -77.08396 | 13 ft | 0 kts | 89° |
| 2026-04-28 22:47 | 26.51307 | -77.08395 | 13 ft | 0 kts | 88° |
| 2026-04-28 22:47 | 26.51306 | -77.08408 | 13 ft | 1 kts | 84° |
| 2026-04-28 22:48 | 26.51305 | -77.08408 | 13 ft | 0 kts | 96° |
| 2026-04-28 22:48 | 26.51303 | -77.08403 | 13 ft | 0 kts | 99° |
| 2026-04-28 22:48 | 26.51303 | -77.08398 | 13 ft | 0 kts | 91° |
| 2026-04-28 23:00 | 26.51303 | -77.08397 | 13 ft | 1 kts | 91° |
| 2026-04-28 23:00 | 26.51280 | -77.08383 | 13 ft | 9 kts | 173° |
| 2026-04-28 23:00 | 26.51171 | -77.08363 | 15 ft | 14 kts | 173° |
| 2026-04-28 23:00 | 26.51139 | -77.08445 | 14 ft | 19 kts | 270° |
| 2026-04-28 23:01 | 26.51134 | -77.08662 | 12 ft | 35 kts | 268° |
| 2026-04-28 23:01 | 26.51128 | -77.08914 | 9 ft | 26 kts | 269° |
| 2026-04-28 23:01 | 26.51122 | -77.09109 | 7 ft | 27 kts | 270° |
| 2026-04-28 23:01 | 26.51115 | -77.09333 | 9 ft | 31 kts | 270° |
| 2026-04-28 23:02 | 26.51077 | -77.09476 | 11 ft | 11 kts | 185° |
| 2026-04-28 23:02 | 26.50994 | -77.09451 | 8 ft | 13 kts | 111° |
| 2026-04-28 23:02 | 26.50997 | -77.09231 | 7 ft | 70 kts | 89° |
| 2026-04-28 23:02 | 26.51014 | -77.08358 | 104 ft | 141 kts | 88° |
| 2026-04-28 23:03 | 26.51041 | -77.07138 | 552 ft | 169 kts | 84° |
| 2026-04-28 23:03 | 26.51138 | -77.05802 | 1147 ft | 179 kts | 84° |
| 2026-04-28 23:03 | 26.51150 | -77.04383 | 1739 ft | 188 kts | 92° |
| 2026-04-28 23:03 | 26.51047 | -77.02875 | 2218 ft | 201 kts | 92° |
| 2026-04-28 23:04 | 26.51050 | -77.01297 | 2753 ft | 205 kts | 74° |
| 2026-04-28 23:04 | 26.53168 | -76.99520 | 3919 ft | 207 kts | 359° |
| 2026-04-28 23:04 | 26.54500 | -77.00068 | 4451 ft | 213 kts | 322° |
| 2026-04-28 23:05 | 26.55261 | -77.01299 | 4922 ft | 218 kts | 290° |
| 2026-04-28 23:05 | 26.55225 | -77.03111 | 5474 ft | 223 kts | 250° |
| 2026-04-28 23:05 | 26.54324 | -77.04465 | 6152 ft | 216 kts | 217° |
| 2026-04-28 23:05 | 26.53084 | -77.05376 | 6879 ft | 213 kts | 212° |
| 2026-04-28 23:06 | 26.51860 | -77.06299 | 7551 ft | 213 kts | 222° |
| 2026-04-28 23:06 | 26.51129 | -77.07644 | 8287 ft | 204 kts | 256° |
| 2026-04-28 23:06 | 26.50828 | -77.09147 | 9014 ft | 197 kts | 269° |
| 2026-04-28 23:06 | 26.50809 | -77.10662 | 9672 ft | 199 kts | 274° |
| 2026-04-28 23:07 | 26.50819 | -77.12212 | 10352 ft | 201 kts | 274° |
| 2026-04-28 23:07 | 26.50834 | -77.13779 | 11036 ft | 201 kts | 274° |
| 2026-04-28 23:07 | 26.50852 | -77.15321 | 11666 ft | 204 kts | 274° |
| 2026-04-28 23:07 | 26.50870 | -77.16916 | 12378 ft | 208 kts | 274° |
| 2026-04-28 23:08 | 26.50888 | -77.18514 | 13141 ft | 208 kts | 274° |
| 2026-04-28 23:08 | 26.50907 | -77.20133 | 13851 ft | 211 kts | 274° |
| 2026-04-28 23:08 | 26.50928 | -77.21872 | 13988 ft | 233 kts | 274° |
| 2026-04-28 23:08 | 26.50950 | -77.23731 | 14006 ft | 244 kts | 273° |
| 2026-04-28 23:09 | 26.50971 | -77.25653 | 14006 ft | 252 kts | 274° |
| 2026-04-28 23:09 | 26.50992 | -77.27626 | 14005 ft | 258 kts | 274° |
| 2026-04-28 23:09 | 26.51014 | -77.29645 | 14007 ft | 263 kts | 273° |
| 2026-04-28 23:09 | 26.51036 | -77.31724 | 14007 ft | 268 kts | 273° |
| 2026-04-28 23:10 | 26.51058 | -77.33817 | 14005 ft | 271 kts | 273° |
| 2026-04-28 23:10 | 26.51080 | -77.35938 | 14003 ft | 274 kts | 273° |
| 2026-04-28 23:10 | 26.51102 | -77.38074 | 14007 ft | 276 kts | 273° |
| 2026-04-28 23:10 | 26.51124 | -77.40216 | 14002 ft | 277 kts | 273° |
| 2026-04-28 23:11 | 26.51145 | -77.42376 | 14002 ft | 279 kts | 274° |
| 2026-04-28 23:11 | 26.51166 | -77.44572 | 14002 ft | 279 kts | 273° |
| 2026-04-28 23:11 | 26.51187 | -77.46737 | 14001 ft | 280 kts | 273° |
| 2026-04-28 23:11 | 26.51207 | -77.48923 | 14002 ft | 280 kts | 273° |
| 2026-04-28 23:12 | 26.51227 | -77.51086 | 13996 ft | 277 kts | 274° |
| 2026-04-28 23:12 | 26.51247 | -77.53219 | 13998 ft | 274 kts | 273° |
| 2026-04-28 23:12 | 26.51266 | -77.55347 | 13998 ft | 272 kts | 274° |
| 2026-04-28 23:12 | 26.51285 | -77.57443 | 13999 ft | 270 kts | 273° |
| 2026-04-28 23:13 | 26.51303 | -77.59531 | 13995 ft | 269 kts | 274° |
| 2026-04-28 23:13 | 26.51321 | -77.61621 | 13999 ft | 268 kts | 274° |
| 2026-04-28 23:13 | 26.51337 | -77.63705 | 14001 ft | 267 kts | 274° |
| 2026-04-28 23:13 | 26.51353 | -77.65752 | 14002 ft | 267 kts | 273° |
| 2026-04-28 23:14 | 26.51369 | -77.67855 | 13998 ft | 266 kts | 273° |
| 2026-04-28 23:14 | 26.51385 | -77.69904 | 13999 ft | 266 kts | 273° |
| 2026-04-28 23:14 | 26.51402 | -77.71989 | 14001 ft | 266 kts | 273° |
| 2026-04-28 23:14 | 26.51418 | -77.74061 | 13999 ft | 265 kts | 273° |
| 2026-04-28 23:15 | 26.51433 | -77.76102 | 13998 ft | 265 kts | 273° |
| 2026-04-28 23:15 | 26.51448 | -77.78159 | 13999 ft | 265 kts | 273° |
| 2026-04-28 23:15 | 26.51463 | -77.80212 | 13999 ft | 265 kts | 273° |
| 2026-04-28 23:15 | 26.51478 | -77.82295 | 13999 ft | 264 kts | 273° |
| 2026-04-28 23:16 | 26.51492 | -77.84335 | 14000 ft | 264 kts | 273° |
| 2026-04-28 23:16 | 26.51506 | -77.86395 | 14000 ft | 264 kts | 273° |
| 2026-04-28 23:16 | 26.51520 | -77.88440 | 13999 ft | 264 kts | 273° |
| 2026-04-28 23:16 | 26.51533 | -77.90485 | 13999 ft | 264 kts | 273° |
| 2026-04-28 23:17 | 26.51546 | -77.92544 | 13999 ft | 264 kts | 273° |
| 2026-04-28 23:17 | 26.51559 | -77.94624 | 13999 ft | 264 kts | 273° |
| 2026-04-28 23:17 | 26.51572 | -77.96659 | 14000 ft | 264 kts | 273° |
| 2026-04-28 23:17 | 26.51584 | -77.98673 | 14000 ft | 264 kts | 273° |
| 2026-04-28 23:18 | 26.51596 | -78.00726 | 14001 ft | 264 kts | 273° |
| 2026-04-28 23:18 | 26.51608 | -78.02777 | 14000 ft | 265 kts | 273° |
| 2026-04-28 23:18 | 26.51619 | -78.04833 | 13999 ft | 264 kts | 273° |
| 2026-04-28 23:18 | 26.51630 | -78.06883 | 14000 ft | 264 kts | 273° |
| 2026-04-28 23:19 | 26.51641 | -78.08938 | 14004 ft | 264 kts | 273° |
| 2026-04-28 23:19 | 26.51651 | -78.11025 | 14003 ft | 265 kts | 273° |
| 2026-04-28 23:19 | 26.51661 | -78.13068 | 13998 ft | 265 kts | 273° |
| 2026-04-28 23:19 | 26.51671 | -78.15116 | 13999 ft | 264 kts | 273° |
| 2026-04-28 23:20 | 26.51681 | -78.17184 | 14001 ft | 264 kts | 273° |
| 2026-04-28 23:20 | 26.51690 | -78.19248 | 13999 ft | 265 kts | 273° |
| 2026-04-28 23:20 | 26.51699 | -78.21306 | 14002 ft | 265 kts | 273° |
| 2026-04-28 23:20 | 26.51708 | -78.23350 | 14000 ft | 264 kts | 273° |
| 2026-04-28 23:21 | 26.51716 | -78.25404 | 14001 ft | 265 kts | 273° |
| 2026-04-28 23:21 | 26.51725 | -78.27470 | 14002 ft | 265 kts | 273° |
| 2026-04-28 23:21 | 26.51732 | -78.29526 | 14001 ft | 265 kts | 273° |
| 2026-04-28 23:21 | 26.51740 | -78.31589 | 14003 ft | 265 kts | 273° |
| 2026-04-28 23:22 | 26.51747 | -78.33647 | 14001 ft | 265 kts | 274° |
| 2026-04-28 23:22 | 26.51754 | -78.35689 | 13999 ft | 265 kts | 273° |
| 2026-04-28 23:22 | 26.51761 | -78.37753 | 13998 ft | 265 kts | 273° |
| 2026-04-28 23:22 | 26.51767 | -78.39816 | 14002 ft | 264 kts | 273° |
| 2026-04-28 23:23 | 26.51773 | -78.41887 | 14002 ft | 265 kts | 273° |
| 2026-04-28 23:23 | 26.51779 | -78.43932 | 14001 ft | 265 kts | 273° |
| 2026-04-28 23:23 | 26.51785 | -78.45988 | 14002 ft | 264 kts | 273° |
| 2026-04-28 23:23 | 26.51790 | -78.48036 | 13994 ft | 260 kts | 273° |
| 2026-04-28 23:24 | 26.51795 | -78.50034 | 13997 ft | 257 kts | 273° |
| 2026-04-28 23:24 | 26.51799 | -78.52032 | 13958 ft | 253 kts | 274° |
| 2026-04-28 23:24 | 26.51803 | -78.53976 | 14003 ft | 248 kts | 273° |
| 2026-04-28 23:24 | 26.51807 | -78.55904 | 14034 ft | 247 kts | 274° |
| 2026-04-28 23:25 | 26.51811 | -78.57814 | 14030 ft | 246 kts | 273° |
| 2026-04-28 23:25 | 26.51814 | -78.59710 | 14006 ft | 246 kts | 274° |
| 2026-04-28 23:25 | 26.51817 | -78.61630 | 14001 ft | 244 kts | 273° |
| 2026-04-28 23:25 | 26.51820 | -78.63508 | 14018 ft | 242 kts | 274° |
| 2026-04-28 23:26 | 26.51823 | -78.65413 | 14022 ft | 242 kts | 273° |
| 2026-04-28 23:26 | 26.51825 | -78.67172 | 14021 ft | 241 kts | 273° |
| 2026-04-28 23:26 | 26.51826 | -78.68693 | 14023 ft | 241 kts | 273° |
| 2026-04-28 23:26 | 26.51828 | -78.70913 | 14029 ft | 249 kts | 273° |
| 2026-04-28 23:27 | 26.51830 | -78.72865 | 14030 ft | 258 kts | 273° |
| 2026-04-28 23:27 | 26.51832 | -78.74836 | 14043 ft | 272 kts | 273° |
| 2026-04-28 23:27 | 26.51834 | -78.77066 | 14040 ft | 284 kts | 272° |
| 2026-04-28 23:27 | 26.51806 | -78.79306 | 14034 ft | 293 kts | 272° |
| 2026-04-28 23:28 | 26.51774 | -78.81597 | 14022 ft | 300 kts | 271° |
| 2026-04-28 23:28 | 26.51741 | -78.83952 | 14027 ft | 305 kts | 271° |
| 2026-04-28 23:28 | 26.51706 | -78.86352 | 14027 ft | 308 kts | 271° |
| 2026-04-28 23:28 | 26.51670 | -78.88735 | 14038 ft | 311 kts | 271° |
| 2026-04-28 23:29 | 26.51635 | -78.91183 | 14037 ft | 315 kts | 271° |
| 2026-04-28 23:29 | 26.51599 | -78.93615 | 14025 ft | 317 kts | 271° |
| 2026-04-28 23:29 | 26.51560 | -78.96104 | 14045 ft | 317 kts | 271° |
| 2026-04-28 23:29 | 26.51523 | -78.98554 | 14062 ft | 317 kts | 271° |
| 2026-04-28 23:30 | 26.51484 | -79.01040 | 14065 ft | 317 kts | 271° |
| 2026-04-28 23:30 | 26.51445 | -79.03484 | 14077 ft | 317 kts | 271° |
| 2026-04-28 23:30 | 26.51405 | -79.05943 | 14084 ft | 317 kts | 271° |
| 2026-04-28 23:30 | 26.51366 | -79.08388 | 14090 ft | 318 kts | 271° |
| 2026-04-28 23:31 | 26.51325 | -79.10867 | 14091 ft | 318 kts | 271° |
| 2026-04-28 23:31 | 26.51284 | -79.13341 | 14098 ft | 318 kts | 272° |
| 2026-04-28 23:31 | 26.51242 | -79.15824 | 14102 ft | 318 kts | 271° |
| 2026-04-28 23:31 | 26.51201 | -79.18276 | 14108 ft | 318 kts | 271° |
| 2026-04-28 23:32 | 26.51159 | -79.20764 | 14118 ft | 318 kts | 271° |
| 2026-04-28 23:32 | 26.51115 | -79.23206 | 14025 ft | 313 kts | 271° |
| 2026-04-28 23:32 | 26.51073 | -79.25641 | 13653 ft | 310 kts | 271° |
| 2026-04-28 23:32 | 26.51031 | -79.28039 | 13209 ft | 307 kts | 271° |
| 2026-04-28 23:33 | 26.50989 | -79.30406 | 12782 ft | 305 kts | 271° |
| 2026-04-28 23:33 | 26.50947 | -79.32783 | 12347 ft | 304 kts | 271° |
| 2026-04-28 23:33 | 26.50903 | -79.35106 | 11907 ft | 299 kts | 271° |
| 2026-04-28 23:33 | 26.50859 | -79.37395 | 11474 ft | 296 kts | 271° |
| 2026-04-28 23:34 | 26.50817 | -79.39663 | 11045 ft | 293 kts | 271° |
| 2026-04-28 23:34 | 26.50818 | -79.41916 | 10608 ft | 290 kts | 275° |
| 2026-04-28 23:34 | 26.50773 | -79.44170 | 10164 ft | 290 kts | 271° |
| 2026-04-28 23:34 | 26.50712 | -79.46420 | 9712 ft | 290 kts | 271° |
| 2026-04-28 23:35 | 26.50650 | -79.48695 | 9255 ft | 290 kts | 271° |
| 2026-04-28 23:35 | 26.50595 | -79.50915 | 8814 ft | 290 kts | 271° |
| 2026-04-28 23:35 | 26.50541 | -79.53165 | 8363 ft | 288 kts | 271° |
| 2026-04-28 23:35 | 26.50493 | -79.55402 | 7911 ft | 287 kts | 271° |
| 2026-04-28 23:36 | 26.50451 | -79.57613 | 7460 ft | 285 kts | 271° |
| 2026-04-28 23:36 | 26.50417 | -79.59827 | 7006 ft | 284 kts | 271° |
| 2026-04-28 23:36 | 26.50385 | -79.62009 | 6552 ft | 282 kts | 271° |
| 2026-04-28 23:36 | 26.50356 | -79.64194 | 6093 ft | 280 kts | 271° |
| 2026-04-28 23:37 | 26.50324 | -79.66355 | 5632 ft | 278 kts | 271° |
| 2026-04-28 23:37 | 26.50297 | -79.68464 | 5182 ft | 277 kts | 271° |
| 2026-04-28 23:37 | 26.50286 | -79.70567 | 4991 ft | 265 kts | 274° |
| 2026-04-28 23:37 | 26.50560 | -79.72630 | 4907 ft | 269 kts | 282° |
| 2026-04-28 23:38 | 26.50883 | -79.74716 | 4830 ft | 273 kts | 282° |
| 2026-04-28 23:38 | 26.51208 | -79.76809 | 4784 ft | 275 kts | 282° |
| 2026-04-28 23:38 | 26.51751 | -79.78845 | 4686 ft | 274 kts | 294° |
| 2026-04-28 23:38 | 26.52459 | -79.80835 | 4614 ft | 274 kts | 294° |
| 2026-04-28 23:39 | 26.53171 | -79.82829 | 4553 ft | 275 kts | 294° |
| 2026-04-28 23:39 | 26.53882 | -79.84830 | 4517 ft | 275 kts | 294° |
| 2026-04-28 23:39 | 26.54581 | -79.86805 | 4480 ft | 275 kts | 294° |
| 2026-04-28 23:39 | 26.55287 | -79.88796 | 4432 ft | 275 kts | 294° |
| 2026-04-28 23:40 | 26.55988 | -79.90786 | 4393 ft | 275 kts | 295° |
| 2026-04-28 23:40 | 26.56928 | -79.92612 | 4300 ft | 269 kts | 307° |
| 2026-04-28 23:40 | 26.57988 | -79.94347 | 4208 ft | 268 kts | 307° |
| 2026-04-28 23:40 | 26.59041 | -79.96067 | 4111 ft | 266 kts | 307° |
| 2026-04-28 23:41 | 26.60085 | -79.97773 | 4014 ft | 266 kts | 307° |
| 2026-04-28 23:41 | 26.61024 | -79.99517 | 3815 ft | 270 kts | 301° |
| 2026-04-28 23:41 | 26.61959 | -80.01377 | 3526 ft | 275 kts | 302° |
| 2026-04-28 23:41 | 26.62853 | -80.03285 | 3352 ft | 277 kts | 293° |
| 2026-04-28 23:42 | 26.63152 | -80.05443 | 3176 ft | 279 kts | 274° |
| 2026-04-28 23:42 | 26.63195 | -80.07574 | 3210 ft | 272 kts | 274° |
| 2026-04-28 23:42 | 26.63260 | -80.09676 | 3134 ft | 271 kts | 274° |
| 2026-04-28 23:42 | 26.63323 | -80.11771 | 3124 ft | 268 kts | 274° |
| 2026-04-28 23:43 | 26.63384 | -80.13863 | 3124 ft | 265 kts | 274° |
| 2026-04-28 23:43 | 26.63444 | -80.15882 | 3113 ft | 254 kts | 274° |
| 2026-04-28 23:43 | 26.63502 | -80.17808 | 3002 ft | 249 kts | 274° |
| 2026-04-28 23:43 | 26.63559 | -80.19719 | 3016 ft | 240 kts | 274° |
| 2026-04-28 23:44 | 26.63666 | -80.21552 | 3006 ft | 232 kts | 285° |
| 2026-04-28 23:44 | 26.64402 | -80.23082 | 3016 ft | 219 kts | 318° |
| 2026-04-28 23:44 | 26.65689 | -80.23907 | 3028 ft | 209 kts | 345° |
| 2026-04-28 23:44 | 26.67105 | -80.24254 | 3028 ft | 205 kts | 353° |
| 2026-04-28 23:45 | 26.68323 | -80.24009 | 2871 ft | 161 kts | 44° |
| 2026-04-28 23:45 | 26.68592 | -80.22938 | 2587 ft | 141 kts | 86° |
| 2026-04-28 23:45 | 26.68577 | -80.21840 | 2307 ft | 142 kts | 85° |
| 2026-04-28 23:45 | 26.68602 | -80.20739 | 2136 ft | 141 kts | 83° |
| 2026-04-28 23:46 | 26.68630 | -80.19640 | 1973 ft | 141 kts | 85° |
| 2026-04-28 23:46 | 26.68602 | -80.18549 | 1779 ft | 142 kts | 89° |
| 2026-04-28 23:46 | 26.68530 | -80.17439 | 1605 ft | 141 kts | 88° |
| 2026-04-28 23:46 | 26.68516 | -80.16343 | 1414 ft | 144 kts | 86° |
| 2026-04-28 23:47 | 26.68515 | -80.15200 | 1180 ft | 144 kts | 89° |
| 2026-04-28 23:47 | 26.68455 | -80.14107 | 921 ft | 141 kts | 89° |
| 2026-04-28 23:47 | 26.68403 | -80.13071 | 649 ft | 119 kts | 90° |
| 2026-04-28 23:47 | 26.68366 | -80.12184 | 392 ft | 113 kts | 86° |
| 2026-04-28 23:48 | 26.68341 | -80.11311 | 213 ft | 109 kts | 89° |
| 2026-04-28 23:48 | 26.68304 | -80.10478 | 36 ft | 105 kts | 88° |
| 2026-04-28 23:48 | 26.68274 | -80.09753 | 19 ft | 70 kts | 93° |
| 2026-04-28 23:48 | 26.68257 | -80.09418 | 19 ft | 22 kts | 95° |
| 2026-04-28 23:49 | 26.68145 | -80.09318 | 19 ft | 25 kts | 224° |
| 2026-04-28 23:49 | 26.68013 | -80.09314 | 19 ft | 25 kts | 121° |
| 2026-04-28 23:49 | 26.67903 | -80.09187 | 19 ft | 16 kts | 188° |
| 2026-04-28 23:49 | 26.67859 | -80.09238 | 19 ft | 6 kts | 231° |
| 2026-04-28 23:50 | 26.67841 | -80.09231 | 18 ft | 0 kts | 69° |
| 2026-04-28 23:50 | 26.67841 | -80.09232 | 18 ft | 0 kts | 69° |
| 2026-04-28 23:55 | 26.67841 | -80.09231 | 18 ft | 0 kts | 69° |
| 2026-04-28 23:55 | 26.67843 | -80.09226 | 19 ft | 3 kts | 63° |
| 2026-04-28 23:55 | 26.67831 | -80.09182 | 19 ft | 10 kts | 128° |
| 2026-04-28 23:56 | 26.67824 | -80.09055 | 19 ft | 22 kts | 105° |
| 2026-04-28 23:56 | 26.67866 | -80.08850 | 20 ft | 32 kts | 71° |
| 2026-04-28 23:56 | 26.67927 | -80.08599 | 20 ft | 34 kts | 74° |
| 2026-04-28 23:56 | 26.67980 | -80.08380 | 20 ft | 26 kts | 72° |
| 2026-04-28 23:57 | 26.68023 | -80.08196 | 20 ft | 17 kts | 79° |
| 2026-04-28 23:57 | 26.67979 | -80.08123 | 20 ft | 7 kts | 147° |
| 2026-04-28 23:57 | 26.67956 | -80.08108 | 21 ft | 2 kts | 148° |
| 2026-04-28 23:57 | 26.67941 | -80.08087 | 21 ft | 8 kts | 111° |
| 2026-04-28 23:58 | 26.67938 | -80.08041 | 21 ft | 0 kts | 91° |